METAR Analyzer

一覧表示

Hello, Guest. (Login)

ROAH/OKA  -  那覇

観測日時
2022-09-30 05:00 (UTC) (20分前)
気温
30
露点
24
湿数
6
相対湿度
70.3%
QNH
1014.2hPa
推定現地気圧
1013.8hPa
推定海面気圧
1014.1hPa
体感温度
24.8
(無風時)
28.3
HI
35.1
気温前日比
±0
体感温度前日比
-0.3
HI前日比
-2.3
水平視程
>10000m
鉛直視程
データなし
雲底高度
No dense clouds
V/I
VMC (VFR)
RVR
No RVR data
卓越風
11kt from 350°
ガスト
No gust
降水
報告なし
その他の天気
報告なし
少しの(1/8) 積雲 @ 2000ft AGL

ROAH 300500Z 35011KT 9999 FEW020 30/24 Q1014 RMK 1CU020 A2995

RODN  -  嘉手納基地

観測日時
2022-09-30 03:56 (UTC) (84分前)
気温
31.1
露点
23.4
湿数
7.7
相対湿度
63.7%
QNH
1013.9hPa
推定現地気圧
1008.6hPa
推定海面気圧
1013.6hPa
体感温度
26.1
(無風時)
28.6
HI
36
気温前日比
-0.1
体感温度前日比
-0.3
HI前日比
-2
水平視程
>10SM
鉛直視程
データなし
雲底高度
No dense clouds
V/I
VMC (VFR)
RVR
No RVR data
卓越風
7kt from 350°
ガスト
No gust
降水
報告なし
その他の天気
報告なし
少しの雲 @ 2900ft AGL

RODN 300356Z 35007KT 10SM FEW029 31/23 A2994 RMK SLPNO T03110234 $

ROTM  -  普天間飛行場

観測日時
2022-09-30 04:56 (UTC) (24分前)
気温
31.2
露点
23.4
湿数
7.8
相対湿度
63.3%
QNH
1013.9hPa
推定現地気圧
1004.9hPa
推定海面気圧
1013.4hPa
体感温度
25.9
(無風時)
28.7
HI
36.2
気温前日比
+4.3
体感温度前日比
+2.6
HI前日比
+5.9
水平視程
>10000m
鉛直視程
データなし
雲底高度
No dense clouds
V/I
VMC (VFR)
RVR
No RVR data
卓越風
10kt from 310°
ガスト
No gust
降水
報告なし
その他の天気
報告なし
散在する雲 @ 2000ft AGL

ROTM 300456Z 31010KT 9999 SCT020 31/23 A2994 RMK SLP140 T03120234

RORK/KTD  -  北大東

観測日時
2022-09-30 05:00 (UTC) (20分前)
気温
29
露点
23
湿数
6
相対湿度
70.1%
QNH
1014.2hPa
推定現地気圧
1011.6hPa
推定海面気圧
1014.1hPa
体感温度
24
(無風時)
27.5
HI
32.8
気温前日比
+3
体感温度前日比
+4.9
HI前日比
+5.7
水平視程
>10000m
鉛直視程
データなし
雲底高度
No dense clouds
V/I
VMC (VFR)
RVR
No RVR data
卓越風
7kt from 350° (300° ~ 40°)
ガスト
No gust
降水
報告なし
その他の天気
報告なし
少しの雲 @ 2000ft AGL

RORK 300500Z AUTO 35007KT 300V040 9999 FEW020 29/23 Q1014 RMK A2995

ROMD/MMD  -  南大東

観測日時
2022-09-30 05:00 (UTC) (20分前)
気温
29
露点
24
湿数
5
相対湿度
74.5%
QNH
1014.2hPa
推定現地気圧
1008.4hPa
推定海面気圧
1013.9hPa
体感温度
24.3
(無風時)
27.9
HI
33.6
気温前日比
+3
体感温度前日比
+5.1
HI前日比
+6.5
水平視程
>10000m
鉛直視程
データなし
雲底高度
No dense clouds
V/I
VMC (VFR)
RVR
No RVR data
卓越風
7kt from 350° (310° ~ 30°)
ガスト
No gust
降水
報告なし
その他の天気
報告なし
少しの雲 @ 1900ft AGL

ROMD 300500Z AUTO 35007KT 310V030 9999 FEW019 29/24 Q1014 RMK A2995

RORA/AGJ  -  粟国

No data in
2022-09-30 03:20 ~ 2022-09-30 05:20 (UTC)

ROKR/KJP  -  慶良間

No data in
2022-09-30 03:20 ~ 2022-09-30 05:20 (UTC)

ROKJ/UEO  -  久米島

観測日時
2022-09-30 04:00 (UTC) (80分前)
気温
31
露点
25
湿数
6
相対湿度
70.5%
QNH
1014.9hPa
推定現地気圧
1014.1hPa
推定海面気圧
1014.9hPa
体感温度
26.7
(無風時)
29.1
HI
37.7
気温前日比
+1
体感温度前日比
+1.1
HI前日比
+1.5
水平視程
>10000m
鉛直視程
データなし
雲底高度
No dense clouds
V/I
VMC (VFR)
RVR
No RVR data
卓越風
6kt from 20°
ガスト
No gust
降水
報告なし
その他の天気
報告なし
少しの雲 @ 2000ft AGL

ROKJ 300400Z 02006KT 9999 FEW020 31/25 Q1014 RMK A2997

ROMY/MMY  -  宮古

観測日時
2022-09-30 05:00 (UTC) (20分前)
気温
29
露点
24
湿数
5
相対湿度
74.5%
QNH
1014hPa
推定現地気圧
1008.8hPa
推定海面気圧
1013.7hPa
体感温度
23.9
(無風時)
27.9
HI
33.6
気温前日比
±0
体感温度前日比
-0.4
HI前日比
±0
水平視程
>10000m
鉛直視程
データなし
雲底高度
No dense clouds
V/I
VMC (VFR)
RVR
No RVR data
卓越風
10kt from 70°
ガスト
No gust
降水
しゅう雨性の降水 (種類不明) (周辺において)
その他の天気
報告なし
散在する雲 @ 2300ft AGL / 少しの塔状積雲 @ 2500ft AGL

ROMY 300500Z 07010KT 9999 VCSH SCT023 FEW025TCU 29/24 Q1014

RORS/SHI  -  下地島

観測日時
2022-09-30 05:00 (UTC) (20分前)
気温
29
露点
25
湿数
4
相対湿度
79.1%
QNH
1013hPa
推定現地気圧
1012.0hPa
推定海面気圧
1012.9hPa
体感温度
25.4
(無風時)
28.2
HI
34.5
気温前日比
-1
体感温度前日比
-0.2
HI前日比
-1.7
水平視程
>10000m
鉛直視程
データなし
雲底高度
2500ft AGL
V/I
VMC (VFR)
RVR
No RVR data
卓越風
4kt from 260°
ガスト
No gust
降水
弱いしゅう雨性の雨
その他の天気
報告なし
散在する雲 @ 2100ft AGL / 隙間のある雲 @ 2500ft AGL

RORS 300500Z 26004KT 9999 -SHRA SCT021 BKN025 29/25 Q1013

RORT/TRA  -  多良間

No data in
2022-09-30 03:20 ~ 2022-09-30 05:20 (UTC)

ROIG/ISG  -  石垣

観測日時
2022-09-30 05:00 (UTC) (20分前)
気温
30
露点
24
湿数
6
相対湿度
70.3%
QNH
1013hPa
推定現地気圧
1009.3hPa
推定海面気圧
1012.8hPa
体感温度
25.1
(無風時)
28.3
HI
35.1
気温前日比
+1
体感温度前日比
+0.3
HI前日比
+0.6
水平視程
>10000m
鉛直視程
データなし
雲底高度
No dense clouds
V/I
VMC (VFR)
RVR
No RVR data
卓越風
8kt from 100° (70° ~ 130°)
ガスト
No gust
降水
報告なし
その他の天気
報告なし
少しの雲 @ 2000ft AGL

ROIG 300500Z 10008KT 070V130 9999 FEW020 30/24 Q1013

ROYN/OGN  -  与那国

観測日時
2022-09-30 05:00 (UTC) (20分前)
気温
31
露点
25
湿数
6
相対湿度
70.5%
QNH
1013hPa
推定現地気圧
1011.2hPa
推定海面気圧
1012.9hPa
体感温度
26.7
(無風時)
29.1
HI
37.7
気温前日比
+2
体感温度前日比
+0.3
HI前日比
+0.7
水平視程
>10000m
鉛直視程
データなし
雲底高度
2200ft AGL
V/I
VMC (VFR)
RVR
No RVR data
卓越風
6kt from 120° (80° ~ 160°)
ガスト
No gust
降水
報告なし
その他の天気
報告なし
隙間のある雲 @ 2200ft AGL

ROYN 300500Z AUTO 12006KT 080V160 9999 BKN022 31/25 Q1013

2562msec